Terminal Aerodrome Forecast
Issued by NWS

Home | Current Version | Previous Version | Text Only | Print | Product List | Glossary On
Versions: 1 2 3 4 5 6 7 8 9 10 11 12 13 14 15 16 17 18 19 20 21 22 23 24 25 26 27 28 29 30 31 32 33 34
000
FTUS43 KLOT 011344 AAA
TAFMDW
TAF AMD
KMDW 011344Z 0114/0212 36006KT 6SM -SHRA SCT010 OVC015
      TEMPO 0114/0115 2SM RA OVC010
     FM012000 01008KT 6SM -SHRA BR SCT015 BKN025
     FM012300 02007KT P6SM BKN030
     FM020300 34005KT P6SM OVC025
     FM020900 35005KT 4SM BR OVC018=

USA.gov is the U.S. government's official web portal to all federal, state and local government web resources and services.